createdAt,value
2023-03-06T00:00:51.848Z,28.70
2023-03-06T00:01:51.975Z,29.60
2023-03-06T00:02:52.343Z,28.50
2023-03-06T00:03:51.750Z,29.20
2023-03-06T00:04:51.734Z,33.40
2023-03-06T00:05:51.789Z,30.60
2023-03-06T00:06:51.745Z,30.30
2023-03-06T00:07:51.758Z,32.60
2023-03-06T00:08:51.706Z,32.90
2023-03-06T00:09:51.774Z,32.90
2023-03-06T00:10:51.703Z,32.80
2023-03-06T00:11:51.705Z,31.80
2023-03-06T00:12:51.743Z,33.60
2023-03-06T00:13:51.781Z,34.60
2023-03-06T00:14:51.809Z,33.60
2023-03-06T00:15:51.810Z,38.00
2023-03-06T00:16:51.742Z,36.10
2023-03-06T00:17:51.732Z,33.70
2023-03-06T00:18:51.766Z,32.70
2023-03-06T00:19:51.853Z,36.40
2023-03-06T00:20:51.875Z,34.70
2023-03-06T00:21:51.983Z,40.00
2023-03-06T00:22:51.998Z,34.10
2023-03-06T00:23:51.614Z,36.70
2023-03-06T00:24:51.791Z,34.60
2023-03-06T00:25:51.802Z,37.70
2023-03-06T00:26:51.881Z,36.30
2023-03-06T00:27:52.029Z,37.00
2023-03-06T00:28:51.818Z,36.90
2023-03-06T00:29:51.687Z,37.00
2023-03-06T00:30:51.609Z,35.40
2023-03-06T00:31:52.037Z,41.50
2023-03-06T00:32:52.047Z,36.60
2023-03-06T00:33:52.057Z,35.60
2023-03-06T00:34:52.066Z,36.50
2023-03-06T00:35:51.778Z,35.60
2023-03-06T00:36:52.084Z,37.80
2023-03-06T00:37:51.533Z,37.60
2023-03-06T00:38:51.967Z,39.90
2023-03-06T00:39:51.513Z,33.10
2023-03-06T00:40:51.894Z,40.80
2023-03-06T00:41:51.487Z,37.50
2023-03-06T00:42:51.702Z,34.90
2023-03-06T00:43:51.504Z,38.50
2023-03-06T00:44:51.733Z,38.00
2023-03-06T00:45:51.778Z,35.80
2023-03-06T00:46:51.521Z,36.50
2023-03-06T00:47:51.533Z,37.60
2023-03-06T00:48:51.442Z,40.80
2023-03-06T00:49:51.546Z,38.00
2023-03-06T00:50:51.549Z,40.40
2023-03-06T00:51:51.639Z,38.40
2023-03-06T00:52:51.629Z,40.20
2023-03-06T00:53:51.782Z,40.10
2023-03-06T00:54:51.577Z,38.80
2023-03-06T00:55:51.433Z,38.40
2023-03-06T00:56:51.797Z,42.20
2023-03-06T00:57:51.815Z,39.30
2023-03-06T00:58:51.908Z,42.80
2023-03-06T01:01:17.474Z,45.60
2023-03-06T01:02:17.486Z,41.30
2023-03-06T01:03:17.399Z,46.20
2023-03-06T01:04:17.486Z,45.60
2023-03-06T01:05:17.456Z,48.10
2023-03-06T01:06:17.482Z,49.00
2023-03-06T01:07:17.465Z,46.40
2023-03-06T01:08:17.474Z,49.80
2023-03-06T01:09:17.282Z,44.00
2023-03-06T01:10:17.734Z,49.60
2023-03-06T01:11:17.657Z,52.10
2023-03-06T01:12:17.357Z,48.90
2023-03-06T01:13:17.353Z,50.00
2023-03-06T01:14:17.314Z,53.60
2023-03-06T01:15:17.297Z,55.80
2023-03-06T01:16:17.515Z,51.60
2023-03-06T01:17:17.698Z,50.70
2023-03-06T01:18:17.590Z,52.60
2023-03-06T01:19:17.205Z,51.10
2023-03-06T01:20:17.551Z,54.00
2023-03-06T01:21:17.189Z,53.80
2023-03-06T01:22:17.178Z,55.30
2023-03-06T01:23:17.187Z,54.00
2023-03-06T01:24:17.159Z,60.10
2023-03-06T01:25:17.179Z,55.10
2023-03-06T01:26:17.337Z,60.20
2023-03-06T01:27:17.341Z,58.70
2023-03-06T01:28:17.458Z,57.30
2023-03-06T01:29:17.369Z,57.90
2023-03-06T01:30:17.156Z,56.10
2023-03-06T01:31:17.254Z,61.10
2023-03-06T01:32:17.584Z,58.80
2023-03-06T01:33:17.589Z,61.70
2023-03-06T01:34:17.234Z,66.20
2023-03-06T01:35:17.684Z,63.80
2023-03-06T01:36:17.200Z,62.20
2023-03-06T01:37:17.636Z,68.00
2023-03-06T01:38:17.826Z,64.30
2023-03-06T01:39:17.847Z,68.40
2023-03-06T01:40:17.216Z,63.00
2023-03-06T01:41:17.435Z,64.20
2023-03-06T01:42:17.872Z,67.10
2023-03-06T01:43:17.506Z,64.00
2023-03-06T01:44:17.668Z,67.90
2023-03-06T01:45:17.056Z,68.60
2023-03-06T01:46:17.469Z,68.00
2023-03-06T01:47:17.677Z,69.50
2023-03-06T01:48:17.539Z,72.20
2023-03-06T01:49:17.754Z,70.70
2023-03-06T01:50:17.906Z,71.30
2023-03-06T01:51:17.027Z,72.30
2023-03-06T01:52:17.023Z,76.30
2023-03-06T01:53:17.125Z,68.90
2023-03-06T01:54:16.988Z,68.30
2023-03-06T01:55:16.988Z,67.10
2023-03-06T01:56:17.110Z,70.00
2023-03-06T01:57:16.965Z,68.30
2023-03-06T01:58:17.005Z,71.70
2023-03-06T01:59:16.963Z,68.40
2023-03-06T02:00:16.965Z,64.80
2023-03-06T02:01:16.988Z,71.60
2023-03-06T02:02:16.975Z,69.20
2023-03-06T02:03:16.987Z,69.10
2023-03-06T02:04:16.973Z,64.10
2023-03-06T02:05:17.013Z,69.20
2023-03-06T02:06:16.991Z,63.70
2023-03-06T02:07:17.000Z,69.30
2023-03-06T02:08:17.061Z,66.30
2023-03-06T02:09:16.894Z,68.90
2023-03-06T02:10:17.092Z,73.50
2023-03-06T02:11:17.121Z,68.70
2023-03-06T02:12:17.090Z,67.90
2023-03-06T02:13:17.101Z,66.60
2023-03-06T02:14:17.067Z,67.20
2023-03-06T02:15:17.147Z,72.80
2023-03-06T02:16:17.205Z,62.90
2023-03-06T02:17:17.130Z,67.00
2023-03-06T02:18:17.160Z,69.00
2023-03-06T02:19:17.281Z,69.70
2023-03-06T02:20:17.311Z,66.20
2023-03-06T02:21:17.100Z,64.00
2023-03-06T02:22:17.300Z,67.60
2023-03-06T02:23:17.304Z,69.70
2023-03-06T02:24:16.789Z,65.40
2023-03-06T02:25:16.769Z,62.30
2023-03-06T02:26:16.789Z,67.20
2023-03-06T02:27:16.789Z,63.80
2023-03-06T02:28:16.834Z,68.70
2023-03-06T02:29:16.799Z,63.30
2023-03-06T02:30:16.737Z,61.00
2023-03-06T02:31:16.857Z,68.70
2023-03-06T02:32:16.834Z,64.00
2023-03-06T02:33:16.764Z,64.10
2023-03-06T02:34:17.394Z,61.40
2023-03-06T02:35:16.968Z,61.60
2023-03-06T02:36:17.046Z,62.70
2023-03-06T02:37:17.406Z,64.50
2023-03-06T02:38:17.408Z,61.20
2023-03-06T02:39:16.700Z,63.40
2023-03-06T02:40:16.686Z,65.60
2023-03-06T02:41:16.691Z,63.80
2023-03-06T02:42:16.816Z,64.30
2023-03-06T02:43:16.827Z,65.00
2023-03-06T02:44:16.827Z,67.40
2023-03-06T02:45:16.905Z,69.70
2023-03-06T02:46:16.703Z,65.40
2023-03-06T02:47:16.673Z,69.10
2023-03-06T02:48:16.662Z,67.50
2023-03-06T02:49:16.661Z,68.70
2023-03-06T02:50:16.679Z,68.30
2023-03-06T02:51:16.679Z,64.60
2023-03-06T02:52:16.698Z,66.50
2023-03-06T02:53:16.677Z,69.00
2023-03-06T02:54:16.783Z,65.40
2023-03-06T02:55:16.582Z,65.60
2023-03-06T02:56:16.905Z,67.40
2023-03-06T02:57:16.918Z,66.80
2023-03-06T02:58:16.825Z,68.20
2023-03-06T02:59:16.574Z,69.10
2023-03-06T03:00:17.025Z,68.60
2023-03-06T03:01:17.175Z,65.30
2023-03-06T03:02:16.721Z,62.40
2023-03-06T03:03:16.949Z,71.70
2023-03-06T03:04:17.266Z,74.80
2023-03-06T03:05:16.530Z,68.60
2023-03-06T03:06:16.750Z,71.60
2023-03-06T03:07:16.962Z,70.40
2023-03-06T03:08:16.641Z,71.20
2023-03-06T03:09:16.680Z,72.30
2023-03-06T03:10:16.480Z,71.10
2023-03-06T03:11:16.498Z,76.20
2023-03-06T03:12:16.573Z,73.60
2023-03-06T03:13:16.476Z,71.90
2023-03-06T03:14:16.532Z,75.30
2023-03-06T03:15:16.441Z,74.70
2023-03-06T03:16:16.522Z,74.60
2023-03-06T03:17:16.449Z,76.30
2023-03-06T03:18:16.613Z,69.90
2023-03-06T03:19:16.437Z,74.40
2023-03-06T03:20:16.440Z,73.70
2023-03-06T03:21:16.453Z,78.60
2023-03-06T03:22:17.937Z,74.30
2023-03-06T03:23:16.448Z,70.80
2023-03-06T03:24:16.508Z,74.10
2023-03-06T03:25:16.404Z,72.30
2023-03-06T03:26:16.388Z,70.90
2023-03-06T03:27:16.380Z,76.40
2023-03-06T03:28:16.388Z,72.70
2023-03-06T03:29:16.510Z,72.10
2023-03-06T03:30:16.729Z,75.00
2023-03-06T03:31:16.773Z,70.70
2023-03-06T03:32:16.759Z,75.00
2023-03-06T03:33:16.729Z,72.50
2023-03-06T03:34:16.330Z,71.80
2023-03-06T03:35:16.539Z,72.00
2023-03-06T03:36:16.441Z,70.90
2023-03-06T03:37:16.762Z,73.50
2023-03-06T03:38:16.768Z,71.60
2023-03-06T03:39:16.867Z,72.50
2023-03-06T03:40:16.879Z,66.70
2023-03-06T03:41:16.880Z,70.90
2023-03-06T03:42:16.688Z,76.50
2023-03-06T03:43:16.787Z,74.80
2023-03-06T03:44:17.025Z,72.10
2023-03-06T03:45:16.906Z,73.30
2023-03-06T03:46:16.431Z,73.10
2023-03-06T03:47:16.266Z,70.80
2023-03-06T03:48:16.316Z,73.30
2023-03-06T03:49:16.252Z,75.50
2023-03-06T03:50:16.327Z,76.30
2023-03-06T03:51:16.513Z,72.40
2023-03-06T03:52:16.463Z,71.00
2023-03-06T03:53:16.554Z,70.30
2023-03-06T03:54:16.215Z,70.30
2023-03-06T03:55:16.577Z,68.90
2023-03-06T03:56:16.680Z,67.60
2023-03-06T03:57:16.190Z,68.80
2023-03-06T03:58:16.208Z,69.90
2023-03-06T03:59:16.199Z,73.90
2023-03-06T04:00:16.190Z,71.20
2023-03-06T04:01:16.196Z,69.60
2023-03-06T04:02:16.221Z,69.80
2023-03-06T04:03:16.210Z,71.70
2023-03-06T04:04:16.149Z,71.30
2023-03-06T04:05:16.219Z,72.60
2023-03-06T04:06:16.139Z,70.60
2023-03-06T04:07:16.149Z,72.60
2023-03-06T04:08:16.236Z,75.20
2023-03-06T04:09:16.273Z,74.00
2023-03-06T04:10:16.260Z,75.20
2023-03-06T04:11:16.254Z,75.20
2023-03-06T04:12:16.266Z,73.50
2023-03-06T04:13:16.274Z,75.50
2023-03-06T04:14:16.285Z,71.80
2023-03-06T04:15:16.206Z,73.40
2023-03-06T04:16:16.153Z,72.10
2023-03-06T04:17:16.103Z,76.40
2023-03-06T04:18:16.400Z,74.90
2023-03-06T04:19:16.413Z,77.50
2023-03-06T04:20:16.424Z,75.10
2023-03-06T04:21:16.047Z,77.30
2023-03-06T04:22:16.221Z,74.80
2023-03-06T04:23:16.046Z,73.40
2023-03-06T04:24:16.445Z,71.60
2023-03-06T04:25:16.442Z,70.20
2023-03-06T04:26:16.043Z,74.90
2023-03-06T04:27:16.084Z,73.90
2023-03-06T04:28:16.028Z,78.00
2023-03-06T04:29:17.452Z,73.20
2023-03-06T04:30:15.997Z,74.10
2023-03-06T04:31:16.015Z,68.20
2023-03-06T04:32:16.584Z,71.00
2023-03-06T04:33:15.991Z,66.30
2023-03-06T04:34:16.005Z,66.70
2023-03-06T04:35:16.023Z,63.60
2023-03-06T04:36:16.022Z,61.40
2023-03-06T04:37:16.072Z,62.70
2023-03-06T04:38:16.034Z,62.60
2023-03-06T04:39:15.918Z,58.10
2023-03-06T04:40:15.939Z,64.30
2023-03-06T04:41:15.928Z,61.90
2023-03-06T04:42:15.948Z,63.30
2023-03-06T04:43:15.904Z,67.70
2023-03-06T04:44:15.898Z,69.30
2023-03-06T04:45:15.899Z,62.10
2023-03-06T04:46:15.890Z,62.70
2023-03-06T04:47:18.703Z,55.70
2023-03-06T04:48:16.002Z,56.10
2023-03-06T04:49:16.114Z,55.20
2023-03-06T04:50:16.133Z,57.10
2023-03-06T04:51:16.130Z,58.00
2023-03-06T04:52:15.843Z,58.60
2023-03-06T04:53:16.248Z,61.20
2023-03-06T04:54:18.626Z,56.60
2023-03-06T04:55:16.361Z,50.10
2023-03-06T04:56:16.365Z,53.70
2023-03-06T04:57:15.985Z,49.50
2023-03-06T04:58:15.860Z,52.80
2023-03-06T04:59:16.056Z,50.60
2023-03-06T05:00:16.186Z,49.90
2023-03-06T05:01:16.353Z,53.80
2023-03-06T05:02:16.027Z,55.40
2023-03-06T05:03:16.284Z,54.30
2023-03-06T05:04:16.294Z,55.90
2023-03-06T05:05:16.303Z,54.10
2023-03-06T05:06:16.313Z,48.20
2023-03-06T05:07:15.904Z,48.20
2023-03-06T05:08:15.724Z,46.60
2023-03-06T05:09:15.716Z,51.60
2023-03-06T05:10:15.972Z,50.00
2023-03-06T05:11:15.717Z,51.20
2023-03-06T05:12:15.705Z,49.00
2023-03-06T05:13:15.694Z,49.90
2023-03-06T05:14:15.696Z,49.70
2023-03-06T05:15:15.790Z,49.70
2023-03-06T05:16:15.781Z,48.10
2023-03-06T05:17:16.138Z,47.70
2023-03-06T05:18:15.667Z,49.70
2023-03-06T05:19:15.692Z,48.80
2023-03-06T05:20:15.913Z,50.80
2023-03-06T05:21:15.789Z,48.10
2023-03-06T05:22:15.792Z,49.90
2023-03-06T05:23:15.637Z,47.50
2023-03-06T05:24:15.631Z,50.10
2023-03-06T05:25:15.998Z,50.80
2023-03-06T05:26:16.012Z,52.00
2023-03-06T05:27:16.992Z,48.40
2023-03-06T05:28:16.021Z,50.30
2023-03-06T05:29:15.577Z,52.00
2023-03-06T05:30:16.019Z,52.70
2023-03-06T05:31:16.039Z,52.80
2023-03-06T05:32:16.015Z,55.70
2023-03-06T05:33:15.997Z,55.70
2023-03-06T05:34:15.802Z,56.60
2023-03-06T05:35:15.601Z,56.10
2023-03-06T05:36:15.559Z,53.80
2023-03-06T05:37:16.022Z,52.50
2023-03-06T05:38:15.706Z,54.40
2023-03-06T05:39:15.890Z,49.00
2023-03-06T05:40:15.853Z,49.50
2023-03-06T05:41:15.550Z,56.50
2023-03-06T05:42:15.533Z,55.70
2023-03-06T05:43:15.537Z,56.30
2023-03-06T05:44:15.675Z,50.30
2023-03-06T05:45:15.598Z,50.70
2023-03-06T05:46:15.739Z,52.40
2023-03-06T05:47:15.746Z,54.50
2023-03-06T05:48:15.775Z,54.10
2023-03-06T05:49:15.914Z,53.90
2023-03-06T05:50:15.948Z,52.80
2023-03-06T05:51:15.514Z,53.40
2023-03-06T05:52:15.510Z,51.80
2023-03-06T05:53:15.557Z,55.30
2023-03-06T05:54:15.529Z,52.50
2023-03-06T05:55:15.546Z,54.40
2023-03-06T05:56:15.609Z,56.00
2023-03-06T05:57:15.939Z,59.40
2023-03-06T05:58:15.761Z,59.50
2023-03-06T05:59:15.767Z,59.40
2023-03-06T06:00:15.387Z,58.60
2023-03-06T06:01:15.458Z,60.10
2023-03-06T06:02:16.049Z,55.20
2023-03-06T06:03:15.810Z,63.50
2023-03-06T06:04:16.007Z,57.20
2023-03-06T06:05:15.867Z,61.40
2023-03-06T06:06:16.086Z,57.50
2023-03-06T06:07:15.332Z,60.80
2023-03-06T06:08:15.823Z,59.10
2023-03-06T06:09:15.472Z,58.60
2023-03-06T06:10:15.327Z,60.00
2023-03-06T06:11:16.052Z,58.60
2023-03-06T06:12:15.311Z,61.40
2023-03-06T06:13:15.302Z,59.50
2023-03-06T06:14:15.312Z,58.90
2023-03-06T06:15:15.345Z,55.70
2023-03-06T06:16:15.758Z,61.20
2023-03-06T06:17:15.277Z,52.00
2023-03-06T06:18:15.338Z,55.60
2023-03-06T06:19:15.299Z,54.40
2023-03-06T06:20:15.289Z,52.90
2023-03-06T06:21:15.296Z,52.50
2023-03-06T06:22:15.268Z,54.00
2023-03-06T06:23:15.321Z,49.30
2023-03-06T06:24:15.316Z,51.20
2023-03-06T06:25:15.328Z,47.70
2023-03-06T06:26:15.344Z,46.90
2023-03-06T06:27:15.336Z,48.50
2023-03-06T06:28:15.348Z,51.00
2023-03-06T06:29:15.199Z,51.50
2023-03-06T06:30:15.216Z,54.20
2023-03-06T06:31:15.297Z,53.00
2023-03-06T06:32:15.261Z,55.00
2023-03-06T06:33:15.184Z,55.50
2023-03-06T06:34:15.182Z,52.40
2023-03-06T06:35:15.163Z,55.50
2023-03-06T06:36:15.414Z,51.90
2023-03-06T06:37:15.462Z,57.10
2023-03-06T06:38:15.212Z,56.10
2023-03-06T06:39:15.171Z,56.90
2023-03-06T06:40:15.136Z,50.50
2023-03-06T06:42:31.204Z,51.10
2023-03-06T06:43:15.121Z,49.30
2023-03-06T06:44:15.488Z,52.40
2023-03-06T06:45:15.130Z,50.10
2023-03-06T06:46:49.944Z,50.20
2023-03-06T06:47:22.722Z,53.90
2023-03-06T06:48:17.490Z,53.40
2023-03-06T06:49:15.704Z,53.70
2023-03-06T06:50:15.092Z,55.80
2023-03-06T06:51:15.711Z,61.20
2023-03-06T06:52:15.718Z,61.60
2023-03-06T06:53:15.768Z,61.70
2023-03-06T06:54:15.753Z,61.00
2023-03-06T06:55:15.124Z,60.30
2023-03-06T06:56:15.057Z,68.00
2023-03-06T06:57:15.543Z,59.60
2023-03-06T06:58:15.139Z,61.70
2023-03-06T06:59:17.223Z,58.90
2023-03-06T07:00:15.015Z,60.40
2023-03-06T07:01:15.614Z,56.30
2023-03-06T07:02:15.192Z,56.00
2023-03-06T07:03:15.578Z,55.90
2023-03-06T07:04:15.183Z,53.90
2023-03-06T07:05:15.798Z,54.60
2023-03-06T07:06:15.396Z,53.40
2023-03-06T07:07:14.995Z,52.30
2023-03-06T07:08:15.004Z,48.60
2023-03-06T07:09:15.031Z,47.40
2023-03-06T07:10:15.021Z,49.80
2023-03-06T07:11:15.264Z,46.30
2023-03-06T07:12:15.075Z,41.50
2023-03-06T07:13:15.242Z,45.70
2023-03-06T07:14:15.048Z,42.60
2023-03-06T07:15:15.253Z,40.20
2023-03-06T07:16:14.903Z,39.60
2023-03-06T07:17:15.062Z,43.60
2023-03-06T07:18:15.486Z,41.40
2023-03-06T07:19:15.485Z,39.80
2023-03-06T07:20:14.884Z,38.10
2023-03-06T07:21:15.302Z,38.00
2023-03-06T07:22:14.954Z,38.60
2023-03-06T07:23:15.315Z,38.60
2023-03-06T07:24:14.843Z,35.10
2023-03-06T07:25:15.133Z,35.90
2023-03-06T07:26:15.194Z,38.50
2023-03-06T07:27:15.341Z,36.90
2023-03-06T07:28:18.542Z,39.20
2023-03-06T07:29:15.142Z,38.80
2023-03-06T07:30:14.831Z,41.70
2023-03-06T07:31:14.826Z,43.00
2023-03-06T07:32:14.831Z,44.30
2023-03-06T07:33:14.858Z,43.80
2023-03-06T07:34:14.802Z,42.40
2023-03-06T07:35:20.055Z,42.70
2023-03-06T07:36:14.835Z,44.10
2023-03-06T07:37:14.819Z,45.30
2023-03-06T07:38:14.828Z,46.90
2023-03-06T07:39:14.849Z,44.50
2023-03-06T07:40:14.835Z,43.60
2023-03-06T07:41:15.088Z,43.80
2023-03-06T07:42:15.069Z,44.30
2023-03-06T07:43:19.388Z,43.30
2023-03-06T07:44:15.086Z,44.30
2023-03-06T07:45:14.708Z,46.00
2023-03-06T07:46:14.763Z,45.00
2023-03-06T07:47:14.710Z,50.40
2023-03-06T07:48:14.797Z,46.60
2023-03-06T07:49:14.912Z,45.20
2023-03-06T07:50:14.696Z,44.30
2023-03-06T07:51:14.744Z,42.00
2023-03-06T07:52:14.897Z,45.70
2023-03-06T07:53:14.933Z,41.30
2023-03-06T07:54:14.952Z,45.20
2023-03-06T07:55:15.148Z,42.90
2023-03-06T07:56:14.717Z,40.90
2023-03-06T07:57:14.926Z,40.00
2023-03-06T07:58:15.150Z,40.30
2023-03-06T07:59:15.147Z,43.50
2023-03-06T08:00:14.825Z,41.80
2023-03-06T08:01:14.638Z,40.20
2023-03-06T08:02:14.606Z,42.70
2023-03-06T08:03:15.180Z,39.80
2023-03-06T08:04:14.667Z,41.10
2023-03-06T08:05:14.595Z,39.40
2023-03-06T08:06:14.626Z,40.10
2023-03-06T08:07:14.801Z,37.40
2023-03-06T08:08:14.592Z,39.20
2023-03-06T08:09:15.226Z,39.10
2023-03-06T08:10:14.775Z,36.60
2023-03-06T08:11:14.627Z,37.10
2023-03-06T08:12:16.617Z,40.20
2023-03-06T08:13:14.533Z,38.50
2023-03-06T08:14:14.851Z,38.80
2023-03-06T08:15:14.643Z,40.80
2023-03-06T08:16:14.675Z,42.50
2023-03-06T08:17:14.518Z,40.60
2023-03-06T08:18:14.610Z,39.30
2023-03-06T08:19:14.694Z,42.70
2023-03-06T08:20:14.679Z,40.10
2023-03-06T08:21:14.679Z,41.50
2023-03-06T08:22:14.686Z,39.50
2023-03-06T08:23:14.545Z,41.40
2023-03-06T08:24:14.682Z,41.60
2023-03-06T08:25:14.504Z,41.90
2023-03-06T08:26:14.539Z,43.90
2023-03-06T08:27:14.455Z,42.90
2023-03-06T08:28:14.639Z,40.00
2023-03-06T08:29:14.795Z,45.90
2023-03-06T08:30:14.665Z,42.00
2023-03-06T08:31:14.454Z,40.60
2023-03-06T08:32:14.430Z,40.70
2023-03-06T08:33:14.403Z,43.10
2023-03-06T08:34:14.412Z,37.00
2023-03-06T08:35:14.524Z,40.70
2023-03-06T08:36:15.362Z,40.20
2023-03-06T08:37:14.616Z,38.20
2023-03-06T08:38:14.412Z,38.20
2023-03-06T08:39:14.699Z,39.10
2023-03-06T08:40:14.855Z,38.30
2023-03-06T08:41:14.410Z,37.10
2023-03-06T08:42:14.864Z,38.80
2023-03-06T08:43:14.471Z,40.70
2023-03-06T08:44:14.889Z,38.30
2023-03-06T08:45:15.092Z,38.20
2023-03-06T08:46:14.533Z,37.00
2023-03-06T08:47:15.107Z,41.10
2023-03-06T08:48:15.099Z,36.60
2023-03-06T08:49:14.877Z,38.00
2023-03-06T08:50:14.277Z,35.90
2023-03-06T08:51:14.290Z,38.40
2023-03-06T08:52:15.104Z,38.50
2023-03-06T08:53:14.698Z,38.80
2023-03-06T08:54:15.119Z,40.70
2023-03-06T08:55:15.204Z,35.90
2023-03-06T08:56:14.305Z,38.40
2023-03-06T08:57:14.516Z,39.40
2023-03-06T08:58:14.893Z,35.80
2023-03-06T08:59:14.935Z,38.70
2023-03-06T09:00:14.490Z,35.80
2023-03-06T09:01:14.240Z,35.80
2023-03-06T09:02:14.558Z,37.70
2023-03-06T09:03:14.352Z,35.30
2023-03-06T09:04:14.353Z,37.10
2023-03-06T09:05:14.363Z,39.80
2023-03-06T09:06:14.375Z,38.50
2023-03-06T09:07:14.181Z,38.90
2023-03-06T09:08:14.180Z,37.90
2023-03-06T09:09:14.606Z,40.60
2023-03-06T09:10:14.663Z,37.20
2023-03-06T09:11:14.620Z,38.60
2023-03-06T09:12:14.622Z,39.60
2023-03-06T09:13:14.627Z,41.90
2023-03-06T09:14:14.917Z,41.20
2023-03-06T09:15:14.840Z,39.70
2023-03-06T09:16:14.462Z,40.70
2023-03-06T09:17:15.010Z,37.20
2023-03-06T09:18:15.010Z,35.30
2023-03-06T09:19:15.072Z,37.00
2023-03-06T09:20:14.659Z,35.10
2023-03-06T09:21:14.877Z,40.10
2023-03-06T09:22:14.268Z,36.80
2023-03-06T09:23:14.073Z,38.60
2023-03-06T09:24:14.486Z,38.80
2023-03-06T09:25:14.903Z,41.60
2023-03-06T09:26:14.121Z,40.00
2023-03-06T09:27:14.199Z,37.90
2023-03-06T09:28:14.121Z,37.90
2023-03-06T09:29:14.050Z,36.30
2023-03-06T09:30:14.160Z,37.30
2023-03-06T09:31:14.258Z,36.50
2023-03-06T09:32:14.207Z,36.60
2023-03-06T09:33:14.145Z,40.40
2023-03-06T09:34:14.151Z,41.10
2023-03-06T09:35:13.989Z,40.50
2023-03-06T09:36:14.161Z,38.80
2023-03-06T09:37:15.297Z,40.00
2023-03-06T09:38:14.173Z,41.70
2023-03-06T09:39:13.980Z,40.80
2023-03-06T09:40:13.986Z,38.80
2023-03-06T09:41:13.998Z,38.80
2023-03-06T09:42:13.945Z,37.60
2023-03-06T09:43:14.226Z,40.50
2023-03-06T09:44:13.998Z,41.50
2023-03-06T09:45:14.237Z,43.00
2023-03-06T09:46:14.313Z,42.90
2023-03-06T09:47:14.035Z,42.20
2023-03-06T09:48:14.242Z,42.30
2023-03-06T09:49:13.968Z,40.20
2023-03-06T09:50:14.381Z,42.90
2023-03-06T09:51:14.498Z,42.30
2023-03-06T09:52:13.880Z,44.90
2023-03-06T09:53:13.871Z,43.10
2023-03-06T09:54:13.874Z,45.70
2023-03-06T09:55:14.469Z,44.40
2023-03-06T09:56:14.490Z,50.60
2023-03-06T09:57:13.900Z,47.20
2023-03-06T09:58:13.898Z,50.60
2023-03-06T09:59:14.467Z,49.90
2023-03-06T10:00:14.099Z,49.60
2023-03-06T10:01:14.525Z,48.90
2023-03-06T10:02:14.310Z,45.90
2023-03-06T10:03:14.655Z,51.70
2023-03-06T10:04:14.538Z,46.80
2023-03-06T10:05:14.397Z,50.20
2023-03-06T10:06:14.144Z,49.70
2023-03-06T10:07:14.016Z,53.80
2023-03-06T10:08:14.153Z,51.20
2023-03-06T10:09:13.788Z,53.10
2023-03-06T10:10:13.957Z,55.70
2023-03-06T10:11:13.781Z,54.10
2023-03-06T10:12:14.594Z,50.90
2023-03-06T10:13:14.613Z,50.80
2023-03-06T10:14:13.735Z,55.80
2023-03-06T10:15:13.995Z,53.90
2023-03-06T10:16:13.967Z,54.80
2023-03-06T10:17:13.784Z,49.30
2023-03-06T10:18:13.814Z,51.80
2023-03-06T10:19:13.745Z,53.80
2023-03-06T10:20:13.766Z,51.60
2023-03-06T10:21:19.339Z,49.90
2023-03-06T10:22:15.229Z,56.50
2023-03-06T10:23:14.058Z,55.80
2023-03-06T10:24:13.662Z,52.20
2023-03-06T10:25:13.683Z,53.20
2023-03-06T10:26:13.718Z,54.60
2023-03-06T10:27:13.911Z,55.50
2023-03-06T10:28:13.674Z,54.80
2023-03-06T10:29:13.836Z,56.80
2023-03-06T10:30:13.922Z,52.80
2023-03-06T10:31:14.016Z,52.30
2023-03-06T10:32:13.682Z,59.80
2023-03-06T10:33:14.132Z,54.70
2023-03-06T10:34:13.618Z,53.50
2023-03-06T10:35:13.974Z,52.50
2023-03-06T10:36:13.982Z,50.70
2023-03-06T10:37:15.046Z,49.80
2023-03-06T10:38:13.591Z,49.60
2023-03-06T10:39:13.590Z,54.60
2023-03-06T10:40:13.582Z,51.20
2023-03-06T10:41:13.592Z,51.90
2023-03-06T10:42:13.592Z,50.30
2023-03-06T10:43:13.572Z,51.00
2023-03-06T10:44:13.613Z,52.40
2023-03-06T10:45:13.636Z,51.10
2023-03-06T10:46:13.559Z,51.70
2023-03-06T10:47:13.591Z,51.00
2023-03-06T10:48:13.567Z,50.30
2023-03-06T10:49:13.512Z,47.40
2023-03-06T10:50:13.632Z,52.80
2023-03-06T10:51:18.614Z,50.70
2023-03-06T10:52:13.852Z,46.00
2023-03-06T10:53:13.871Z,43.60
2023-03-06T10:54:13.845Z,44.10
2023-03-06T10:55:13.501Z,42.20
2023-03-06T10:56:13.591Z,40.80
2023-03-06T10:57:13.488Z,40.20
2023-03-06T10:58:13.445Z,44.80
2023-03-06T10:59:13.453Z,44.60
2023-03-06T11:00:13.471Z,45.50
2023-03-06T11:01:13.742Z,40.20
2023-03-06T11:02:13.738Z,40.30
2023-03-06T11:03:13.771Z,36.70
2023-03-06T11:04:13.594Z,38.10
2023-03-06T11:05:13.419Z,37.40
2023-03-06T11:06:14.004Z,38.10
2023-03-06T11:07:13.767Z,35.80
2023-03-06T11:08:13.405Z,31.90
2023-03-06T11:09:13.882Z,29.70
2023-03-06T11:10:13.991Z,31.40
2023-03-06T11:11:13.966Z,30.70
2023-03-06T11:12:13.351Z,27.20
2023-03-06T11:13:13.760Z,31.80
2023-03-06T11:14:13.366Z,34.40
2023-03-06T11:15:13.393Z,35.70
2023-03-06T11:16:13.381Z,29.20
2023-03-06T11:17:13.583Z,32.70
2023-03-06T11:18:13.993Z,31.10
2023-03-06T11:19:13.660Z,31.90
2023-03-06T11:20:14.054Z,35.10
2023-03-06T11:21:13.366Z,31.20
2023-03-06T11:22:13.396Z,36.50
2023-03-06T11:23:13.334Z,32.90
2023-03-06T11:24:13.302Z,34.20
2023-03-06T11:25:13.601Z,32.20
2023-03-06T11:26:13.660Z,32.60
2023-03-06T11:27:13.361Z,34.30
2023-03-06T11:28:13.314Z,34.30
2023-03-06T11:29:13.678Z,34.40
2023-03-06T11:30:13.716Z,33.10
2023-03-06T11:31:13.487Z,29.80
2023-03-06T11:32:13.288Z,32.00
2023-03-06T11:33:13.347Z,34.20
2023-03-06T11:34:13.282Z,32.90
2023-03-06T11:35:13.300Z,35.30
2023-03-06T11:36:13.361Z,32.40
2023-03-06T11:37:13.308Z,32.40
2023-03-06T11:38:13.301Z,36.90
2023-03-06T11:39:15.224Z,37.80
2023-03-06T11:40:13.522Z,36.10
2023-03-06T11:41:13.319Z,35.10
2023-03-06T11:42:13.540Z,35.20
2023-03-06T11:43:13.572Z,36.60
2023-03-06T11:44:13.165Z,37.40
2023-03-06T11:45:13.159Z,37.10
2023-03-06T11:46:13.424Z,36.50
2023-03-06T11:47:13.249Z,36.30
2023-03-06T11:48:13.167Z,38.60
2023-03-06T11:49:13.255Z,36.80
2023-03-06T11:50:13.848Z,35.80
2023-03-06T11:51:13.176Z,38.10
2023-03-06T11:52:13.250Z,37.50
2023-03-06T11:53:13.195Z,37.20
2023-03-06T11:54:13.101Z,34.60
2023-03-06T11:55:13.087Z,36.20
2023-03-06T11:56:13.086Z,35.70
2023-03-06T11:57:13.939Z,35.40
2023-03-06T11:58:13.149Z,35.70
2023-03-06T11:59:13.086Z,37.70
2023-03-06T12:00:13.051Z,35.00
2023-03-06T12:01:13.047Z,36.30
2023-03-06T12:02:13.086Z,33.70
2023-03-06T12:03:13.086Z,33.00
2023-03-06T12:04:13.073Z,31.80
2023-03-06T12:05:13.339Z,33.30
2023-03-06T12:06:13.279Z,32.50
2023-03-06T12:07:13.698Z,33.10
2023-03-06T12:08:13.300Z,34.40
2023-03-06T12:09:13.254Z,31.90
2023-03-06T12:10:13.012Z,32.70
2023-03-06T12:11:13.332Z,36.70
2023-03-06T12:12:12.988Z,32.90
2023-03-06T12:13:12.975Z,32.80
2023-03-06T12:14:12.961Z,34.50
2023-03-06T12:15:12.961Z,33.80
2023-03-06T12:16:12.950Z,36.60
2023-03-06T12:17:12.964Z,36.90
2023-03-06T12:18:13.182Z,32.40
2023-03-06T12:19:13.085Z,33.80
2023-03-06T12:20:13.179Z,32.50
2023-03-06T12:21:13.293Z,32.60
2023-03-06T12:22:12.973Z,31.10
2023-03-06T12:23:15.632Z,34.30
2023-03-06T12:24:12.872Z,32.00
2023-03-06T12:25:12.877Z,30.60
2023-03-06T12:26:12.888Z,28.00
2023-03-06T12:27:12.869Z,30.50
2023-03-06T12:28:12.869Z,28.30
2023-03-06T12:29:12.881Z,26.70
2023-03-06T12:30:12.890Z,32.10
2023-03-06T12:31:12.914Z,31.50
2023-03-06T12:32:12.926Z,28.00
2023-03-06T12:33:13.046Z,26.90
2023-03-06T12:34:12.852Z,28.60
2023-03-06T12:35:13.058Z,26.70
2023-03-06T12:36:13.068Z,24.60
2023-03-06T12:37:13.079Z,25.30
2023-03-06T12:38:13.110Z,26.10
2023-03-06T12:39:12.999Z,23.60
2023-03-06T12:40:12.810Z,26.00
2023-03-06T12:41:12.833Z,25.60
2023-03-06T12:42:22.672Z,24.50
2023-03-06T12:43:12.896Z,24.00
2023-03-06T12:44:13.116Z,20.40
2023-03-06T12:45:13.118Z,19.30
2023-03-06T12:46:13.142Z,21.30
2023-03-06T12:47:12.754Z,20.90
2023-03-06T12:48:12.754Z,19.70
2023-03-06T12:49:17.826Z,20.60
2023-03-06T12:50:12.743Z,19.00
2023-03-06T12:51:12.764Z,20.80
2023-03-06T12:52:16.041Z,18.30
2023-03-06T12:53:12.767Z,17.50
2023-03-06T12:54:12.975Z,19.70
2023-03-06T12:55:12.781Z,18.50